Cold Wind — HOYR — position and weather

sailwx.info

Track history (hours):
 
Tides and Currents Weather Stations Pressure Air Temp Water Temp Dewpoint Dewpoint Depression Visibility Wind Speed Wind Dir Waves Ship Positions

Cold Wind

Last reported at 2017-Dec-17 16:46 UTC. Time now 2017-Dec-17 21:44 UTC.
Position N 34°28' E 130°05'.

Length 98 m; draft 5 m.

Type: Tanker. MMSI: 370903000.

Date/timePositionNaut miles runAvg speedWind from/ knotsBaromVisibWave heightAir tempDewpointWater temp
2017-Dec-17 16:46N 34°28' E 130°05'310.6
2017-Dec-17 16:29N 34°26' E 130°08'510.8
2017-Dec-17 16:00N 34°23' E 130°13'511.0
2017-Dec-17 15:30N 34°20' E 130°19'510.8
2017-Dec-17 15:00N 34°17' E 130°24'510.9
2017-Dec-17 14:31N 34°14' E 130°30'510.9
2017-Dec-17 14:00N 34°11' E 130°35'510.8
2017-Dec-17 13:31N 34°08' E 130°41'510.8
2017-Dec-17 13:00N 34°05' E 130°46'511.0
2017-Dec-17 12:31N 34°01' E 130°51'5 9.5
2017-Dec-17 12:01N 33°57' E 130°52'4 7.5
2017-Dec-17 11:31N 33°57' E 130°57'510.3
2017-Dec-17 11:00N 33°57' E 131°03'4 8.0
2017-Dec-17 10:30N 33°55' E 131°07'611.0
2017-Dec-17 10:00N 33°52' E 131°12'611.8
2017-Dec-17 09:30N 33°51' E 131°19'612.1
2017-Dec-17 09:00N 33°52' E 131°26'612.0
2017-Dec-17 08:30N 33°53' E 131°33'611.9
2017-Dec-17 08:00N 33°55' E 131°40'611.0
2017-Dec-17 07:29N 33°59' E 131°45'4 0.5
2017-Dec-16 23:28N 34°02' E 131°48'1 3.1
2017-Dec-16 23:00N 34°01' E 131°48'2 3.0
2017-Dec-16 22:29N 34°00' E 131°47'0 0.0
2017-Dec-16 21:47N 34°00' E 131°47'0 0.0
2017-Dec-16 21:23N 34°00' E 131°47'0 0.0
2017-Dec-16 19:53N 34°00' E 131°47'0 0.1
2017-Dec-16 19:29N 34°00' E 131°47'0 0.1
2017-Dec-16 18:59N 34°00' E 131°47'0 0.0
2017-Dec-16 18:29N 34°00' E 131°47'0 0.0
2017-Dec-16 17:59N 34°00' E 131°47'0 0.1
2017-Dec-16 17:17N 34°00' E 131°47'0 0.2
2017-Dec-16 16:59N 34°00' E 131°47'0 0.0
2017-Dec-16 16:17N 34°00' E 131°47'0 0.2
2017-Dec-16 15:56N 34°00' E 131°47'0 0.0
2017-Dec-16 15:23N 34°00' E 131°47'0 0.1
2017-Dec-16 14:53N 34°00' E 131°47'0 0.0
2017-Dec-16 14:29N 34°00' E 131°47'0 0.0
2017-Dec-16 12:29N 34°00' E 131°47'0 0.0
2017-Dec-16 10:53N 34°00' E 131°47'0 0.1
2017-Dec-16 10:29N 34°00' E 131°47'0 0.0
2017-Dec-16 09:53N 34°00' E 131°47'0 0.0
2017-Dec-16 09:29N 34°00' E 131°47'0 0.0
2017-Dec-16 08:53N 34°00' E 131°47'0 0.0
2017-Dec-16 08:29N 34°00' E 131°47'0 0.0
2017-Dec-16 07:59N 34°00' E 131°47'0 0.0
2017-Dec-16 07:23N 34°00' E 131°47'0 0.0
2017-Dec-16 06:53N 34°00' E 131°47'0 0.1
2017-Dec-16 06:23N 34°00' E 131°47'0 0.0
2017-Dec-16 05:59N 34°00' E 131°47'0 0.0
2017-Dec-16 05:17N 34°00' E 131°47'0 0.0
2017-Dec-16 04:53N 34°00' E 131°47'0 0.0
2017-Dec-16 02:45N 34°00' E 131°47'0 0.0
2017-Dec-16 02:27N 34°00' E 131°47'0 0.2
2017-Dec-16 02:00N 34°00' E 131°47'3 5.5
2017-Dec-16 01:22N 33°57' E 131°45'411.3
2017-Dec-16 01:00N 33°54' E 131°41'612.9
2017-Dec-16 00:30N 33°53' E 131°34'713.1
2017-Dec-16 00:00N 33°52' E 131°26'612.7
2017-Dec-15 23:30N 33°51' E 131°18'612.3
2017-Dec-15 23:00N 33°52' E 131°11'612.6
2017-Dec-15 22:31N 33°56' E 131°05'5 9.6
2017-Dec-15 22:00N 33°59' E 131°00'510.0
2017-Dec-15 21:31N 33°55' E 130°56'4 8.2
2017-Dec-15 21:00N 33°58' E 130°52'510.1
2017-Dec-15 20:30N 34°02' E 130°48'612.5
2017-Dec-15 20:01N 34°01' E 130°41'612.6
2017-Dec-15 19:31N 33°58' E 130°34'612.6
2017-Dec-15 19:01N 33°56' E 130°27'612.3
2017-Dec-15 18:30N 33°53' E 130°20'612.7
2017-Dec-15 18:00N 33°50' E 130°13'612.4
2017-Dec-15 17:31N 33°47' E 130°07'612.6
2017-Dec-15 17:01N 33°44' E 130°01'  
2017-Dec-11 10:05N 33°38' E 129°49'3 8.1
2017-Dec-11 09:46N 33°39' E 129°52'4 8.5
2017-Dec-11 09:15N 33°41' E 129°57'2 8.8
2017-Dec-11 09:00N 33°42' E 129°59'4 8.8
2017-Dec-11 08:30N 33°45' E 130°04'4 8.9
2017-Dec-11 08:00N 33°47' E 130°08'4 8.9
2017-Dec-11 07:30N 33°49' E 130°13'5 9.3
2017-Dec-11 07:00N 33°52' E 130°17'5 9.6
2017-Dec-11 06:30N 33°55' E 130°22'5 9.2
2017-Dec-11 06:00N 33°57' E 130°27'5 9.4
2017-Dec-11 05:30N 33°59' E 130°32'5 9.1
2017-Dec-11 05:00N 34°00' E 130°37'5 9.5
2017-Dec-11 04:30N 34°02' E 130°43'5 9.3
2017-Dec-11 04:01N 34°02' E 130°48'5 9.3
2017-Dec-11 03:31N 33°59' E 130°53'4 8.3
2017-Dec-11 03:00N 33°55' E 130°54'4 7.4
2017-Dec-11 02:30N 33°57' E 130°57'4 8.3
2017-Dec-11 02:00N 33°58' E 131°02'4 8.8
2017-Dec-11 01:31N 33°55' E 131°06'4 7.6
2017-Dec-11 01:00N 33°53' E 131°10'5 9.0
2017-Dec-11 00:30N 33°51' E 131°15'510.2
2017-Dec-11 00:00N 33°50' E 131°21'510.6
2017-Dec-10 23:30N 33°49' E 131°27'510.3
2017-Dec-10 23:00N 33°48' E 131°33'510.3
2017-Dec-10 22:30N 33°47' E 131°39'510.3
2017-Dec-10 22:00N 33°46' E 131°45'510.1
2017-Dec-10 21:31N 33°45' E 131°51'610.0
2017-Dec-10 20:52N 33°45' E 131°59'410.5
2017-Dec-10 20:30N 33°46' E 132°04'611.5
2017-Dec-10 19:57N 33°49' E 132°10'911.3
2017-Dec-10 19:07N 33°50' E 132°21'211.5
2017-Dec-10 18:58N 33°50' E 132°23'611.4
2017-Dec-10 18:26N 33°53' E 132°30'511.1
2017-Dec-10 17:59N 33°54' E 132°36'510.8
2017-Dec-10 17:30N 33°57' E 132°41'510.8
2017-Dec-10 17:00N 34°01' E 132°45'8310.3
2017-Dec-10 08:58N 34°25' E 134°21'511.4
2017-Dec-10 08:30N 34°28' E 134°26'611.4
2017-Dec-10 08:00N 34°32' E 134°32'611.5
2017-Dec-10 07:31N 34°35' E 134°38'611.3
2017-Dec-10 07:00N 34°39' E 134°43'611.3
2017-Dec-10 06:30N 34°43' E 134°47'1 0.2
2017-Dec-09 23:00N 34°44' E 134°47'0 1.0
2017-Dec-09 22:30N 34°44' E 134°47'0 0.0
2017-Dec-09 21:54N 34°44' E 134°47'0 0.0
2017-Dec-09 21:24N 34°44' E 134°47'0 0.0
2017-Dec-09 21:00N 34°44' E 134°47'0 0.0
2017-Dec-09 20:30N 34°44' E 134°47'0 0.0
2017-Dec-09 20:00N 34°44' E 134°47'0 0.0
2017-Dec-09 19:30N 34°44' E 134°47'0 0.1
2017-Dec-09 18:42N 34°44' E 134°47'0 0.2
2017-Dec-09 18:30N 34°44' E 134°47'0 0.0
2017-Dec-09 17:54N 34°44' E 134°47'0 0.0
2017-Dec-09 17:30N 34°44' E 134°47'0 0.1
2017-Dec-09 17:00N 34°44' E 134°47'0 0.0
2017-Dec-09 16:30N 34°44' E 134°47'0 0.0
2017-Dec-09 16:00N 34°44' E 134°47'0 0.0
2017-Dec-09 15:30N 34°44' E 134°47'0 0.0
2017-Dec-09 15:00N 34°44' E 134°47'0 0.0
2017-Dec-09 13:48N 34°44' E 134°47'0 0.1
2017-Dec-09 13:24N 34°44' E 134°47'0 0.0
2017-Dec-09 13:00N 34°44' E 134°47'0 0.0
2017-Dec-09 12:30N 34°44' E 134°47'0 0.0
2017-Dec-09 12:00N 34°44' E 134°47'0 0.0
2017-Dec-09 11:30N 34°44' E 134°47'0 0.0
2017-Dec-09 11:00N 34°44' E 134°47'0 0.0
2017-Dec-09 10:24N 34°44' E 134°47'0 0.0
2017-Dec-09 10:00N 34°44' E 134°47'0 0.0
2017-Dec-09 09:30N 34°44' E 134°47'0 0.0
2017-Dec-09 09:00N 34°44' E 134°47'0 0.0
2017-Dec-09 08:24N 34°44' E 134°47'0 0.0
2017-Dec-09 08:00N 34°44' E 134°47'0 0.0
2017-Dec-08 22:58N 34°44' E 134°47'0 0.8
2017-Dec-08 22:21N 34°44' E 134°47'0 0.0
2017-Dec-08 21:15N 34°44' E 134°47'0 0.0
2017-Dec-08 20:57N 34°44' E 134°47'0 0.0
2017-Dec-08 20:27N 34°44' E 134°47'0 0.0
2017-Dec-08 19:57N 34°44' E 134°47'0 0.1
2017-Dec-08 19:27N 34°44' E 134°47'0 0.0
2017-Dec-08 18:57N 34°44' E 134°47'0 0.0
2017-Dec-08 18:15N 34°44' E 134°47'0 0.0
2017-Dec-08 17:57N 34°44' E 134°47'0 0.1
2017-Dec-08 17:27N 34°44' E 134°47'0 0.1
2017-Dec-08 16:33N 34°44' E 134°47'0 0.0
2017-Dec-08 16:27N 34°44' E 134°47'0 0.0
2017-Dec-08 15:57N 34°44' E 134°47'0 0.1
2017-Dec-08 15:21N 34°44' E 134°47'0 0.0
2017-Dec-08 14:39N 34°44' E 134°47'0 0.1
2017-Dec-08 14:27N 34°44' E 134°47'0 0.0
2017-Dec-08 13:39N 34°44' E 134°47'0 0.0
2017-Dec-08 13:27N 34°44' E 134°47'0 0.0
2017-Dec-08 11:09N 34°44' E 134°47'0 0.0
2017-Dec-08 10:09N 34°44' E 134°47'0 0.0
2017-Dec-08 09:57N 34°44' E 134°47'0 0.0
2017-Dec-08 09:27N 34°44' E 134°47'0 0.0
2017-Dec-08 06:51N 34°44' E 134°47'0 0.0
2017-Dec-08 06:21N 34°44' E 134°47'0 0.0
2017-Dec-08 05:57N 34°44' E 134°47'0 0.0
2017-Dec-08 05:30N 34°44' E 134°47'0 0.0
2017-Dec-08 04:57N 34°44' E 134°47'0 0.0
2017-Dec-08 04:27N 34°44' E 134°47'0 0.0
2017-Dec-08 03:51N 34°44' E 134°47'0 0.0
2017-Dec-08 03:27N 34°44' E 134°47'0 0.0
2017-Dec-08 03:00N 34°44' E 134°47'0 0.0
2017-Dec-08 02:30N 34°44' E 134°47'0 0.0
2017-Dec-08 02:00N 34°44' E 134°47'0 0.0
2017-Dec-08 01:30N 34°44' E 134°47'0 0.0
2017-Dec-08 01:00N 34°44' E 134°47'0 0.0
2017-Dec-08 00:28N 34°44' E 134°47'0 0.0
2017-Dec-08 00:00N 34°44' E 134°47'0 0.0
2017-Dec-07 23:30N 34°44' E 134°47'0 0.0
2017-Dec-07 23:00N 34°44' E 134°47'0 0.0
2017-Dec-07 22:27N 34°44' E 134°47'0 0.0
2017-Dec-07 21:59N 34°44' E 134°47'0 0.1
2017-Dec-07 21:30N 34°44' E 134°47'0 0.1
2017-Dec-07 20:59N 34°44' E 134°47'0 0.5
2017-Dec-07 20:30N 34°44' E 134°47'2 3.9
2017-Dec-07 20:00N 34°42' E 134°48'4 7.3
2017-Dec-07 19:30N 34°39' E 134°50'5 9.4
2017-Dec-07 19:00N 34°37' E 134°55'5 9.9
2017-Dec-07 18:30N 34°37' E 135°01'5 9.9
2017-Dec-07 18:00N 34°35' E 135°07'3 6.0
2017-Dec-07 17:30N 34°33' E 135°09'4 8.6
2017-Dec-07 17:01N 34°29' E 135°06'  
Track history (hours):
 
Tides and Currents Weather Stations Pressure Air Temp Water Temp Dewpoint Dewpoint Depression Visibility Wind Speed Wind Dir Waves Ship Positions

Cold Wind

Last reported at 2017-Dec-17 16:46 UTC. Time now 2017-Dec-17 21:44 UTC.
Position N 34°28' E 130°05'.

Length 98 m; draft 5 m.

Type: Tanker. MMSI: 370903000.

Date/timePositionNaut miles runAvg speedWind from/ knotsBaromVisibWave heightAir tempDewpointWater temp
2017-Dec-17 16:46N 34°28' E 130°05'310.6
2017-Dec-17 16:29N 34°26' E 130°08'510.8
2017-Dec-17 16:00N 34°23' E 130°13'511.0
2017-Dec-17 15:30N 34°20' E 130°19'510.8
2017-Dec-17 15:00N 34°17' E 130°24'510.9
2017-Dec-17 14:31N 34°14' E 130°30'510.9
2017-Dec-17 14:00N 34°11' E 130°35'510.8
2017-Dec-17 13:31N 34°08' E 130°41'510.8
2017-Dec-17 13:00N 34°05' E 130°46'511.0
2017-Dec-17 12:31N 34°01' E 130°51'5 9.5
2017-Dec-17 12:01N 33°57' E 130°52'4 7.5
2017-Dec-17 11:31N 33°57' E 130°57'510.3
2017-Dec-17 11:00N 33°57' E 131°03'4 8.0
2017-Dec-17 10:30N 33°55' E 131°07'611.0
2017-Dec-17 10:00N 33°52' E 131°12'611.8
2017-Dec-17 09:30N 33°51' E 131°19'612.1
2017-Dec-17 09:00N 33°52' E 131°26'612.0
2017-Dec-17 08:30N 33°53' E 131°33'611.9
2017-Dec-17 08:00N 33°55' E 131°40'611.0
2017-Dec-17 07:29N 33°59' E 131°45'4 0.5
2017-Dec-16 23:28N 34°02' E 131°48'1 3.1
2017-Dec-16 23:00N 34°01' E 131°48'2 3.0
2017-Dec-16 22:29N 34°00' E 131°47'0 0.0
2017-Dec-16 21:47N 34°00' E 131°47'0 0.0
2017-Dec-16 21:23N 34°00' E 131°47'0 0.0
2017-Dec-16 19:53N 34°00' E 131°47'0 0.1
2017-Dec-16 19:29N 34°00' E 131°47'0 0.1
2017-Dec-16 18:59N 34°00' E 131°47'0 0.0
2017-Dec-16 18:29N 34°00' E 131°47'0 0.0
2017-Dec-16 17:59N 34°00' E 131°47'0 0.1
2017-Dec-16 17:17N 34°00' E 131°47'0 0.2
2017-Dec-16 16:59N 34°00' E 131°47'0 0.0
2017-Dec-16 16:17N 34°00' E 131°47'0 0.2
2017-Dec-16 15:56N 34°00' E 131°47'0 0.0
2017-Dec-16 15:23N 34°00' E 131°47'0 0.1
2017-Dec-16 14:53N 34°00' E 131°47'0 0.0
2017-Dec-16 14:29N 34°00' E 131°47'0 0.0
2017-Dec-16 12:29N 34°00' E 131°47'0 0.0
2017-Dec-16 10:53N 34°00' E 131°47'0 0.1
2017-Dec-16 10:29N 34°00' E 131°47'0 0.0
2017-Dec-16 09:53N 34°00' E 131°47'0 0.0
2017-Dec-16 09:29N 34°00' E 131°47'0 0.0
2017-Dec-16 08:53N 34°00' E 131°47'0 0.0
2017-Dec-16 08:29N 34°00' E 131°47'0 0.0
2017-Dec-16 07:59N 34°00' E 131°47'0 0.0
2017-Dec-16 07:23N 34°00' E 131°47'0 0.0
2017-Dec-16 06:53N 34°00' E 131°47'0 0.1
2017-Dec-16 06:23N 34°00' E 131°47'0 0.0
2017-Dec-16 05:59N 34°00' E 131°47'0 0.0
2017-Dec-16 05:17N 34°00' E 131°47'0 0.0
2017-Dec-16 04:53N 34°00' E 131°47'0 0.0
2017-Dec-16 02:45N 34°00' E 131°47'0 0.0
2017-Dec-16 02:27N 34°00' E 131°47'0 0.2
2017-Dec-16 02:00N 34°00' E 131°47'3 5.5
2017-Dec-16 01:22N 33°57' E 131°45'411.3
2017-Dec-16 01:00N 33°54' E 131°41'612.9
2017-Dec-16 00:30N 33°53' E 131°34'713.1
2017-Dec-16 00:00N 33°52' E 131°26'612.7
2017-Dec-15 23:30N 33°51' E 131°18'612.3
2017-Dec-15 23:00N 33°52' E 131°11'612.6
2017-Dec-15 22:31N 33°56' E 131°05'5 9.6
2017-Dec-15 22:00N 33°59' E 131°00'510.0
2017-Dec-15 21:31N 33°55' E 130°56'4 8.2
2017-Dec-15 21:00N 33°58' E 130°52'510.1
2017-Dec-15 20:30N 34°02' E 130°48'612.5
2017-Dec-15 20:01N 34°01' E 130°41'612.6
2017-Dec-15 19:31N 33°58' E 130°34'612.6
2017-Dec-15 19:01N 33°56' E 130°27'612.3
2017-Dec-15 18:30N 33°53' E 130°20'612.7
2017-Dec-15 18:00N 33°50' E 130°13'612.4
2017-Dec-15 17:31N 33°47' E 130°07'612.6
2017-Dec-15 17:01N 33°44' E 130°01'  
2017-Dec-11 10:05N 33°38' E 129°49'3 8.1
2017-Dec-11 09:46N 33°39' E 129°52'4 8.5
2017-Dec-11 09:15N 33°41' E 129°57'2 8.8
2017-Dec-11 09:00N 33°42' E 129°59'4 8.8
2017-Dec-11 08:30N 33°45' E 130°04'4 8.9
2017-Dec-11 08:00N 33°47' E 130°08'4 8.9
2017-Dec-11 07:30N 33°49' E 130°13'5 9.3
2017-Dec-11 07:00N 33°52' E 130°17'5 9.6
2017-Dec-11 06:30N 33°55' E 130°22'5 9.2
2017-Dec-11 06:00N 33°57' E 130°27'5 9.4
2017-Dec-11 05:30N 33°59' E 130°32'5 9.1
2017-Dec-11 05:00N 34°00' E 130°37'5 9.5
2017-Dec-11 04:30N 34°02' E 130°43'5 9.3
2017-Dec-11 04:01N 34°02' E 130°48'5 9.3
2017-Dec-11 03:31N 33°59' E 130°53'4 8.3
2017-Dec-11 03:00N 33°55' E 130°54'4 7.4
2017-Dec-11 02:30N 33°57' E 130°57'4 8.3
2017-Dec-11 02:00N 33°58' E 131°02'4 8.8
2017-Dec-11 01:31N 33°55' E 131°06'4 7.6
2017-Dec-11 01:00N 33°53' E 131°10'5 9.0
2017-Dec-11 00:30N 33°51' E 131°15'510.2
2017-Dec-11 00:00N 33°50' E 131°21'510.6
2017-Dec-10 23:30N 33°49' E 131°27'510.3
2017-Dec-10 23:00N 33°48' E 131°33'510.3
2017-Dec-10 22:30N 33°47' E 131°39'510.3
2017-Dec-10 22:00N 33°46' E 131°45'510.1
2017-Dec-10 21:31N 33°45' E 131°51'610.0
2017-Dec-10 20:52N 33°45' E 131°59'410.5
2017-Dec-10 20:30N 33°46' E 132°04'611.5
2017-Dec-10 19:57N 33°49' E 132°10'911.3
2017-Dec-10 19:07N 33°50' E 132°21'211.5
2017-Dec-10 18:58N 33°50' E 132°23'611.4
2017-Dec-10 18:26N 33°53' E 132°30'511.1
2017-Dec-10 17:59N 33°54' E 132°36'510.8
2017-Dec-10 17:30N 33°57' E 132°41'510.8
2017-Dec-10 17:00N 34°01' E 132°45'8310.3
2017-Dec-10 08:58N 34°25' E 134°21'511.4
2017-Dec-10 08:30N 34°28' E 134°26'611.4
2017-Dec-10 08:00N 34°32' E 134°32'611.5
2017-Dec-10 07:31N 34°35' E 134°38'611.3
2017-Dec-10 07:00N 34°39' E 134°43'611.3
2017-Dec-10 06:30N 34°43' E 134°47'1 0.2
2017-Dec-09 23:00N 34°44' E 134°47'0 1.0
2017-Dec-09 22:30N 34°44' E 134°47'0 0.0
2017-Dec-09 21:54N 34°44' E 134°47'0 0.0
2017-Dec-09 21:24N 34°44' E 134°47'0 0.0
2017-Dec-09 21:00N 34°44' E 134°47'0 0.0
2017-Dec-09 20:30N 34°44' E 134°47'0 0.0
2017-Dec-09 20:00N 34°44' E 134°47'0 0.0
2017-Dec-09 19:30N 34°44' E 134°47'0 0.1
2017-Dec-09 18:42N 34°44' E 134°47'0 0.2
2017-Dec-09 18:30N 34°44' E 134°47'0 0.0
2017-Dec-09 17:54N 34°44' E 134°47'0 0.0
2017-Dec-09 17:30N 34°44' E 134°47'0 0.1
2017-Dec-09 17:00N 34°44' E 134°47'0 0.0
2017-Dec-09 16:30N 34°44' E 134°47'0 0.0
2017-Dec-09 16:00N 34°44' E 134°47'0 0.0
2017-Dec-09 15:30N 34°44' E 134°47'0 0.0
2017-Dec-09 15:00N 34°44' E 134°47'0 0.0
2017-Dec-09 13:48N 34°44' E 134°47'0 0.1
2017-Dec-09 13:24N 34°44' E 134°47'0 0.0
2017-Dec-09 13:00N 34°44' E 134°47'0 0.0
2017-Dec-09 12:30N 34°44' E 134°47'0 0.0
2017-Dec-09 12:00N 34°44' E 134°47'0 0.0
2017-Dec-09 11:30N 34°44' E 134°47'0 0.0
2017-Dec-09 11:00N 34°44' E 134°47'0 0.0
2017-Dec-09 10:24N 34°44' E 134°47'0 0.0
2017-Dec-09 10:00N 34°44' E 134°47'0 0.0
2017-Dec-09 09:30N 34°44' E 134°47'0 0.0
2017-Dec-09 09:00N 34°44' E 134°47'0 0.0
2017-Dec-09 08:24N 34°44' E 134°47'0 0.0
2017-Dec-09 08:00N 34°44' E 134°47'0 0.0
2017-Dec-08 22:58N 34°44' E 134°47'0 0.8
2017-Dec-08 22:21N 34°44' E 134°47'0 0.0
2017-Dec-08 21:15N 34°44' E 134°47'0 0.0
2017-Dec-08 20:57N 34°44' E 134°47'0 0.0
2017-Dec-08 20:27N 34°44' E 134°47'0 0.0
2017-Dec-08 19:57N 34°44' E 134°47'0 0.1
2017-Dec-08 19:27N 34°44' E 134°47'0 0.0
2017-Dec-08 18:57N 34°44' E 134°47'0 0.0
2017-Dec-08 18:15N 34°44' E 134°47'0 0.0
2017-Dec-08 17:57N 34°44' E 134°47'0 0.1
2017-Dec-08 17:27N 34°44' E 134°47'0 0.1
2017-Dec-08 16:33N 34°44' E 134°47'0 0.0
2017-Dec-08 16:27N 34°44' E 134°47'0 0.0
2017-Dec-08 15:57N 34°44' E 134°47'0 0.1
2017-Dec-08 15:21N 34°44' E 134°47'0 0.0
2017-Dec-08 14:39N 34°44' E 134°47'0 0.1
2017-Dec-08 14:27N 34°44' E 134°47'0 0.0
2017-Dec-08 13:39N 34°44' E 134°47'0 0.0
2017-Dec-08 13:27N 34°44' E 134°47'0 0.0
2017-Dec-08 11:09N 34°44' E 134°47'0 0.0
2017-Dec-08 10:09N 34°44' E 134°47'0 0.0
2017-Dec-08 09:57N 34°44' E 134°47'0 0.0
2017-Dec-08 09:27N 34°44' E 134°47'0 0.0
2017-Dec-08 06:51N 34°44' E 134°47'0 0.0
2017-Dec-08 06:21N 34°44' E 134°47'0 0.0
2017-Dec-08 05:57N 34°44' E 134°47'0 0.0
2017-Dec-08 05:30N 34°44' E 134°47'0 0.0
2017-Dec-08 04:57N 34°44' E 134°47'0 0.0
2017-Dec-08 04:27N 34°44' E 134°47'0 0.0
2017-Dec-08 03:51N 34°44' E 134°47'0 0.0
2017-Dec-08 03:27N 34°44' E 134°47'0 0.0
2017-Dec-08 03:00N 34°44' E 134°47'0 0.0
2017-Dec-08 02:30N 34°44' E 134°47'0 0.0
2017-Dec-08 02:00N 34°44' E 134°47'0 0.0
2017-Dec-08 01:30N 34°44' E 134°47'0 0.0
2017-Dec-08 01:00N 34°44' E 134°47'0 0.0
2017-Dec-08 00:28N 34°44' E 134°47'0 0.0
2017-Dec-08 00:00N 34°44' E 134°47'0 0.0
2017-Dec-07 23:30N 34°44' E 134°47'0 0.0
2017-Dec-07 23:00N 34°44' E 134°47'0 0.0
2017-Dec-07 22:27N 34°44' E 134°47'0 0.0
2017-Dec-07 21:59N 34°44' E 134°47'0 0.1
2017-Dec-07 21:30N 34°44' E 134°47'0 0.1
2017-Dec-07 20:59N 34°44' E 134°47'0 0.5
2017-Dec-07 20:30N 34°44' E 134°47'2 3.9
2017-Dec-07 20:00N 34°42' E 134°48'4 7.3
2017-Dec-07 19:30N 34°39' E 134°50'5 9.4
2017-Dec-07 19:00N 34°37' E 134°55'5 9.9
2017-Dec-07 18:30N 34°37' E 135°01'5 9.9
2017-Dec-07 18:00N 34°35' E 135°07'3 6.0
2017-Dec-07 17:30N 34°33' E 135°09'4 8.6
2017-Dec-07 17:01N 34°29' E 135°06'  

Dump ship's entire track history